createdAt,value
2023-10-10T00:04:42.434Z,76.71
2023-10-10T00:09:46.036Z,77.46
2023-10-10T00:14:52.113Z,77.86
2023-10-10T00:19:55.900Z,78.50
2023-10-10T00:24:58.141Z,79.21
2023-10-10T00:30:01.497Z,75.49
2023-10-10T00:35:07.306Z,74.42
2023-10-10T00:40:11.468Z,77.00
2023-10-10T00:45:15.648Z,77.56
2023-10-10T00:50:26.081Z,77.92
2023-10-10T00:55:34.755Z,77.72
2023-10-10T01:00:43.661Z,76.37
2023-10-10T01:05:53.788Z,78.68
2023-10-10T01:11:02.300Z,80.34
2023-10-10T01:16:06.875Z,81.68
2023-10-10T01:21:10.550Z,82.21
2023-10-10T01:26:12.683Z,83.74
2023-10-10T01:31:19.460Z,77.01
2023-10-10T01:36:22.837Z,77.73
2023-10-10T01:41:40.128Z,78.90
2023-10-10T01:46:42.900Z,80.65
2023-10-10T01:51:45.217Z,82.53
2023-10-10T01:56:48.339Z,82.08
2023-10-10T02:01:53.024Z,83.71
2023-10-10T02:07:05.849Z,85.87
2023-10-10T02:12:17.233Z,79.50
2023-10-10T02:17:23.787Z,82.55
2023-10-10T02:22:48.579Z,85.08
2023-10-10T02:27:57.205Z,85.70
2023-10-10T02:32:59.465Z,86.22
2023-10-10T02:38:06.344Z,86.09
2023-10-10T02:43:20.780Z,83.78
2023-10-10T02:48:24.891Z,85.28
2023-10-10T02:53:27.062Z,86.21
2023-10-10T02:58:39.305Z,85.77
2023-10-10T03:03:43.486Z,81.18
2023-10-10T03:08:53.195Z,81.23
2023-10-10T03:14:02.293Z,85.56
2023-10-10T03:19:04.918Z,88.70
2023-10-10T03:24:16.932Z,89.94
2023-10-10T03:29:28.597Z,90.89
2023-10-10T03:34:34.170Z,86.70
2023-10-10T03:39:55.785Z,82.56
2023-10-10T03:45:16.771Z,88.21
2023-10-10T03:50:37.806Z,93.64
2023-10-10T03:55:58.779Z,82.66
2023-10-10T04:01:20.210Z,85.20
2023-10-10T04:06:41.063Z,87.42
2023-10-10T04:12:01.924Z,91.65
2023-10-10T04:17:23.071Z,95.92
2023-10-10T04:22:43.583Z,93.06
2023-10-10T04:28:04.358Z,91.39
2023-10-10T04:33:24.985Z,82.60
2023-10-10T04:38:45.603Z,90.28
2023-10-10T04:44:06.224Z,95.14
2023-10-10T04:49:26.716Z,97.62
2023-10-10T04:54:47.279Z,95.10
2023-10-10T05:00:08.037Z,89.35
2023-10-10T05:05:29.047Z,89.34
2023-10-10T05:10:49.617Z,96.46
2023-10-10T05:16:10.639Z,99.34
2023-10-10T05:21:31.271Z,100.00
2023-10-10T05:26:33.427Z,99.39
2023-10-10T05:31:37.064Z,100.00
2023-10-10T05:36:39.268Z,100.00
2023-10-10T05:41:42.000Z,89.92
2023-10-10T05:46:45.064Z,93.36
2023-10-10T05:51:47.225Z,100.00
2023-10-10T05:56:49.339Z,84.10
2023-10-10T06:01:51.796Z,88.73
2023-10-10T06:06:54.025Z,95.42
2023-10-10T06:11:56.207Z,98.36
2023-10-10T06:16:58.459Z,98.52
2023-10-10T06:22:03.973Z,91.93
2023-10-10T06:27:10.327Z,86.62
2023-10-10T06:32:17.411Z,84.07
2023-10-10T06:37:19.712Z,92.90
2023-10-10T06:42:28.613Z,82.17
2023-10-10T06:47:33.791Z,80.06
2023-10-10T06:52:37.903Z,86.67
2023-10-10T06:57:43.605Z,81.91
2023-10-10T07:02:55.095Z,81.24
2023-10-10T07:08:00.599Z,80.45
2023-10-10T07:13:04.883Z,77.29
2023-10-10T07:18:16.501Z,78.79
2023-10-10T07:23:22.051Z,79.29
2023-10-10T07:28:27.345Z,77.39
2023-10-10T07:33:41.984Z,75.98
2023-10-10T07:38:44.209Z,76.40
2023-10-10T07:43:50.894Z,75.26
2023-10-10T07:48:55.963Z,72.34
2023-10-10T07:54:04.246Z,74.44
2023-10-10T07:59:07.086Z,72.96
2023-10-10T08:04:09.536Z,73.58
2023-10-10T08:09:12.879Z,74.14
2023-10-10T08:14:15.274Z,65.45
2023-10-10T08:19:17.572Z,65.91
2023-10-10T08:24:21.601Z,70.94
2023-10-10T08:29:28.474Z,71.77
2023-10-10T08:34:30.756Z,66.84
2023-10-10T08:39:40.667Z,60.82
2023-10-10T08:44:49.294Z,60.68
2023-10-10T08:49:51.935Z,58.61
2023-10-10T08:54:54.864Z,56.31
2023-10-10T08:59:57.289Z,60.62
2023-10-10T09:04:59.633Z,65.85
2023-10-10T09:10:15.355Z,65.24
2023-10-10T09:15:18.534Z,64.95
2023-10-10T09:20:31.777Z,64.98
2023-10-10T09:25:43.764Z,63.51
2023-10-10T09:31:04.601Z,61.55
2023-10-10T09:36:10.188Z,61.14
2023-10-10T09:41:37.615Z,60.43
2023-10-10T09:47:01.700Z,59.86
2023-10-10T09:52:22.891Z,59.81
2023-10-10T09:57:28.225Z,61.72
2023-10-10T10:02:42.013Z,62.77
2023-10-10T10:08:14.152Z,63.87
2023-10-10T10:13:57.818Z,62.85
2023-10-10T10:19:18.809Z,61.88
2023-10-10T10:24:34.447Z,59.45
2023-10-10T10:29:38.869Z,60.33
2023-10-10T10:34:47.139Z,59.10
2023-10-10T10:40:08.061Z,59.50
2023-10-10T10:45:37.744Z,62.27
2023-10-10T10:50:42.563Z,56.79
2023-10-10T10:56:04.840Z,58.21
2023-10-10T11:01:09.822Z,51.10
2023-10-10T11:06:32.627Z,46.95
2023-10-10T11:11:34.827Z,42.53
2023-10-10T11:16:40.109Z,42.02
2023-10-10T11:21:50.137Z,43.08
2023-10-10T11:27:07.165Z,49.04
2023-10-10T11:32:12.922Z,51.95
2023-10-10T11:37:25.628Z,47.88
2023-10-10T11:42:34.599Z,51.52
2023-10-10T11:47:46.243Z,54.30
2023-10-10T11:52:54.915Z,54.08
2023-10-10T11:58:07.769Z,53.75
2023-10-10T12:03:15.334Z,55.09
2023-10-10T12:08:25.997Z,55.54
2023-10-10T12:13:34.978Z,51.45
2023-10-10T12:18:45.250Z,52.95
2023-10-10T12:23:49.347Z,56.13
2023-10-10T12:28:53.997Z,52.83
2023-10-10T12:33:56.170Z,54.07
2023-10-10T12:39:06.030Z,56.27
2023-10-10T12:44:08.427Z,56.24
2023-10-10T12:49:13.195Z,56.51
2023-10-10T12:54:19.157Z,56.15
2023-10-10T13:04:32.833Z,56.45
2023-10-10T13:09:43.819Z,56.45
2023-10-10T13:14:52.172Z,56.45
2023-10-10T13:19:54.337Z,55.80
2023-10-10T13:24:57.197Z,53.40
2023-10-10T13:29:59.395Z,52.23
2023-10-10T13:35:02.094Z,52.39
2023-10-10T13:40:07.216Z,52.11
2023-10-10T13:45:13.044Z,52.19
2023-10-10T13:50:32.870Z,52.76
2023-10-10T13:55:35.607Z,53.55
2023-10-10T14:00:44.677Z,53.29
2023-10-10T14:06:02.151Z,54.84
2023-10-10T14:11:05.472Z,55.61
2023-10-10T14:16:07.784Z,55.46
2023-10-10T14:21:12.316Z,56.86
2023-10-10T14:26:14.693Z,56.43
2023-10-10T14:31:19.130Z,57.69
2023-10-10T14:36:22.821Z,57.78
2023-10-10T14:41:33.765Z,53.08
2023-10-10T14:46:36.080Z,51.09
2023-10-10T14:51:38.925Z,57.14
2023-10-10T14:56:51.611Z,53.42
2023-10-10T15:01:57.295Z,57.61
2023-10-10T15:07:00.497Z,55.97
2023-10-10T15:12:03.323Z,53.42
2023-10-10T15:17:06.503Z,57.14
2023-10-10T15:22:17.312Z,55.37
2023-10-10T15:27:20.775Z,58.37
2023-10-10T15:32:22.951Z,56.23
2023-10-10T15:37:28.115Z,56.13
2023-10-10T15:42:30.340Z,58.21
2023-10-10T15:47:32.927Z,58.41
2023-10-10T15:52:35.171Z,57.95
2023-10-10T15:57:37.379Z,58.97
2023-10-10T16:02:41.393Z,60.18
2023-10-10T16:07:56.001Z,60.01
2023-10-10T16:13:08.521Z,61.46
2023-10-10T16:18:11.490Z,62.29
2023-10-10T16:23:13.958Z,64.01
2023-10-10T16:28:16.078Z,65.31
2023-10-10T16:33:22.348Z,69.30
2023-10-10T16:38:24.685Z,62.90
2023-10-10T16:43:26.858Z,65.18
2023-10-10T16:48:32.687Z,66.90
2023-10-10T16:53:40.978Z,69.42
2023-10-10T16:58:45.006Z,70.17
2023-10-10T17:03:50.293Z,68.35
2023-10-10T17:08:55.913Z,63.00
2023-10-10T17:14:01.049Z,69.02
2023-10-10T17:19:16.315Z,68.17
2023-10-10T17:24:22.355Z,63.44
2023-10-10T17:29:28.060Z,64.94
2023-10-10T17:34:34.788Z,65.29
2023-10-10T17:39:37.545Z,68.74
2023-10-10T17:44:39.846Z,62.57
2023-10-10T17:49:42.465Z,68.75
2023-10-10T17:54:46.759Z,63.96
2023-10-10T17:59:53.936Z,62.65
2023-10-10T18:04:56.499Z,69.16
2023-10-10T18:09:58.703Z,62.91
2023-10-10T18:15:01.991Z,64.33
2023-10-10T18:20:15.771Z,69.27
2023-10-10T18:25:18.055Z,64.91
2023-10-10T18:30:22.011Z,63.96
2023-10-10T18:35:28.281Z,66.62
2023-10-10T18:40:31.523Z,72.70
2023-10-10T18:45:38.460Z,69.93
2023-10-10T18:50:40.907Z,64.59
2023-10-10T18:55:43.144Z,63.35
2023-10-10T19:00:45.416Z,65.36
2023-10-10T19:05:53.947Z,67.15
2023-10-10T19:10:56.186Z,69.69
2023-10-10T19:15:58.479Z,70.24
2023-10-10T19:21:01.532Z,73.03
2023-10-10T19:26:05.850Z,67.65
2023-10-10T19:31:08.031Z,67.23
2023-10-10T19:36:10.624Z,72.20
2023-10-10T19:41:16.162Z,69.26
2023-10-10T19:46:21.480Z,70.94
2023-10-10T19:51:23.790Z,75.89
2023-10-10T19:56:26.056Z,72.69
2023-10-10T20:01:28.687Z,74.04
2023-10-10T20:06:31.467Z,76.19
2023-10-10T20:11:36.859Z,69.71
2023-10-10T20:16:39.892Z,72.60
2023-10-10T20:21:42.199Z,72.73
2023-10-10T20:26:44.466Z,72.16
2023-10-10T20:31:46.651Z,74.12
2023-10-10T20:36:48.810Z,70.92
2023-10-10T20:41:51.113Z,71.84
2023-10-10T20:46:53.354Z,72.15
2023-10-10T20:51:56.183Z,74.30
2023-10-10T20:56:58.506Z,75.25
2023-10-10T21:02:01.051Z,74.74
2023-10-10T21:07:03.319Z,75.01
2023-10-10T21:12:08.793Z,74.90
2023-10-10T21:17:13.602Z,77.96
2023-10-10T21:22:16.576Z,72.05
2023-10-10T21:27:19.992Z,84.94
2023-10-10T21:32:22.710Z,75.04
2023-10-10T21:37:25.413Z,73.22
2023-10-10T21:42:27.598Z,74.76
2023-10-10T21:47:29.778Z,77.61
2023-10-10T21:52:32.053Z,80.45
2023-10-10T21:57:37.306Z,80.33
2023-10-10T22:02:39.657Z,77.27
2023-10-10T22:07:44.978Z,75.02
2023-10-10T22:12:50.534Z,78.39
2023-10-10T22:17:58.694Z,81.25
2023-10-10T22:23:02.158Z,82.22
2023-10-10T22:28:05.766Z,75.43
2023-10-10T22:33:12.271Z,75.69
2023-10-10T22:38:14.771Z,76.43
2023-10-10T22:43:16.947Z,78.70
2023-10-10T22:48:19.211Z,80.23
2023-10-10T22:53:21.381Z,83.17
2023-10-10T22:58:23.490Z,81.99
2023-10-10T23:03:25.819Z,83.87
2023-10-10T23:08:27.959Z,84.71
2023-10-10T23:13:30.035Z,81.79
2023-10-10T23:18:37.495Z,81.32
2023-10-10T23:23:42.458Z,81.18
2023-10-10T23:28:45.582Z,80.32
2023-10-10T23:33:47.740Z,85.21
2023-10-10T23:38:50.147Z,96.30
2023-10-10T23:43:52.307Z,87.09
2023-10-10T23:48:56.208Z,75.31
2023-10-10T23:53:59.819Z,82.42
2023-10-10T23:59:03.523Z,87.24
